createdAt,value
2022-09-20T00:01:16.938Z,95382.44
2022-09-20T00:03:43.442Z,95380.59
2022-09-20T00:06:09.801Z,95372.97
2022-09-20T00:08:36.149Z,95373.75
2022-09-20T00:11:02.533Z,95370.63
2022-09-20T00:13:28.906Z,95366.09
2022-09-20T00:15:55.275Z,95372.66
2022-09-20T00:18:21.664Z,95374.91
2022-09-20T00:20:48.028Z,95359.44
2022-09-20T00:23:14.402Z,95366.31
2022-09-20T00:25:40.741Z,95372.00
2022-09-20T00:28:07.104Z,95373.22
2022-09-20T00:30:33.453Z,95369.69
2022-09-20T00:32:59.813Z,95373.91
2022-09-20T00:35:26.192Z,95370.06
2022-09-20T00:37:52.536Z,95369.69
2022-09-20T00:40:18.956Z,95375.44
2022-09-20T00:42:45.330Z,95368.66
2022-09-20T00:45:11.690Z,95370.59
2022-09-20T00:47:38.063Z,95367.19
2022-09-20T00:50:04.416Z,95366.41
2022-09-20T00:52:30.794Z,95373.97
2022-09-20T00:54:57.126Z,95374.00
2022-09-20T00:57:23.477Z,95368.69
2022-09-20T00:59:49.839Z,95365.31
2022-09-20T01:02:16.220Z,95366.44
2022-09-20T01:04:42.609Z,95366.47
2022-09-20T01:07:08.974Z,95368.38
2022-09-20T01:09:35.325Z,95377.91
2022-09-20T01:12:01.697Z,95372.59
2022-09-20T01:14:28.048Z,95368.88
2022-09-20T01:16:54.506Z,95374.97
2022-09-20T01:19:20.951Z,95380.56
2022-09-20T01:21:47.313Z,95370.72
2022-09-20T01:24:13.705Z,95374.50
2022-09-20T01:26:40.074Z,95374.88
2022-09-20T01:29:06.447Z,95376.41
2022-09-20T01:31:32.829Z,95381.06
2022-09-20T01:33:59.267Z,95387.66
2022-09-20T01:36:25.614Z,95394.88
2022-09-20T01:38:51.970Z,95394.50
2022-09-20T01:41:18.365Z,95388.81
2022-09-20T01:43:44.822Z,95386.16
2022-09-20T01:46:11.229Z,95388.44
2022-09-20T01:48:37.660Z,95380.47
2022-09-20T01:51:04.044Z,95382.75
2022-09-20T01:53:30.389Z,95385.00
2022-09-20T01:55:56.752Z,95381.63
2022-09-20T01:58:23.095Z,95385.34
2022-09-20T02:00:49.494Z,95385.75
2022-09-20T02:03:15.877Z,95387.25
2022-09-20T02:05:42.247Z,95384.19
2022-09-20T02:08:08.629Z,95381.91
2022-09-20T02:10:34.984Z,95383.44
2022-09-20T02:13:01.425Z,95380.44
2022-09-20T02:15:27.759Z,95384.97
2022-09-20T02:17:54.131Z,95385.72
2022-09-20T02:20:20.478Z,95376.28
2022-09-20T02:22:46.952Z,95382.69
2022-09-20T02:25:13.358Z,95377.78
2022-09-20T02:27:39.727Z,95383.09
2022-09-20T02:30:06.079Z,95387.25
2022-09-20T02:32:32.455Z,95381.22
2022-09-20T02:34:58.837Z,95380.50
2022-09-20T02:37:26.242Z,95383.88
2022-09-20T02:39:52.590Z,95383.13
2022-09-20T02:42:18.942Z,95385.78
2022-09-20T02:44:45.331Z,95387.69
2022-09-20T02:47:11.668Z,95380.09
2022-09-20T02:49:38.031Z,95385.41
2022-09-20T02:52:04.407Z,95381.22
2022-09-20T02:54:30.769Z,95388.75
2022-09-20T02:56:57.120Z,95388.72
2022-09-20T02:59:23.463Z,95393.28
2022-09-20T03:01:49.863Z,95388.38
2022-09-20T03:04:16.307Z,95394.41
2022-09-20T03:06:42.689Z,95393.31
2022-09-20T03:09:09.022Z,95394.84
2022-09-20T03:11:35.386Z,95393.72
2022-09-20T03:14:01.742Z,95402.81
2022-09-20T03:16:28.135Z,95399.78
2022-09-20T03:18:54.524Z,95397.88
2022-09-20T03:21:20.870Z,95400.13
2022-09-20T03:23:47.228Z,95404.66
2022-09-20T03:26:13.570Z,95408.47
2022-09-20T03:28:39.942Z,95404.69
2022-09-20T03:31:06.296Z,95398.25
2022-09-20T03:33:32.656Z,95399.03
2022-09-20T03:35:59.061Z,95397.13
2022-09-20T03:38:25.448Z,95397.53
2022-09-20T03:40:51.906Z,95390.31
2022-09-20T03:43:18.310Z,95390.34
2022-09-20T03:45:44.771Z,95396.38
2022-09-20T03:48:11.156Z,95396.41
2022-09-20T03:50:37.545Z,95394.47
2022-09-20T03:53:03.882Z,95397.16
2022-09-20T03:55:30.242Z,95397.13
2022-09-20T03:57:56.604Z,95399.41
2022-09-20T04:00:22.986Z,95406.25
2022-09-20T04:02:49.332Z,95402.06
2022-09-20T04:05:15.672Z,95397.50
2022-09-20T04:07:42.021Z,95398.66
2022-09-20T04:10:08.468Z,95395.63
2022-09-20T04:12:34.820Z,95388.81
2022-09-20T04:15:01.231Z,95385.78
2022-09-20T04:17:27.576Z,95388.03
2022-09-20T04:19:53.946Z,95382.38
2022-09-20T04:22:20.292Z,95394.09
2022-09-20T04:24:46.665Z,95400.16
2022-09-20T04:27:13.058Z,95403.19
2022-09-20T04:29:39.405Z,95397.91
2022-09-20T04:32:05.840Z,95401.28
2022-09-20T04:34:32.259Z,95390.69
2022-09-20T04:36:58.645Z,95391.06
2022-09-20T04:39:25.014Z,95395.97
2022-09-20T04:41:51.373Z,95393.31
2022-09-20T04:44:17.746Z,95398.63
2022-09-20T04:46:44.099Z,95406.19
2022-09-20T04:49:10.451Z,95407.72
2022-09-20T04:51:36.837Z,95416.03
2022-09-20T04:54:03.224Z,95414.50
2022-09-20T04:56:29.598Z,95414.53
2022-09-20T04:58:55.953Z,95417.56
2022-09-20T05:01:24.342Z,95420.22
2022-09-20T05:03:50.903Z,95408.50
2022-09-20T05:06:17.274Z,95412.28
2022-09-20T05:08:43.654Z,95408.88
2022-09-20T05:11:10.103Z,95414.56
2022-09-20T05:13:36.469Z,95405.84
2022-09-20T05:16:02.831Z,95419.09
2022-09-20T05:18:31.492Z,95417.56
2022-09-20T05:20:57.869Z,95422.50
2022-09-20T05:23:24.242Z,95417.59
2022-09-20T05:25:50.608Z,95425.53
2022-09-20T05:28:17.016Z,95425.91
2022-09-20T05:30:43.377Z,95429.72
2022-09-20T05:33:09.730Z,95425.13
2022-09-20T05:35:36.094Z,95422.69
2022-09-20T05:38:02.426Z,95425.19
2022-09-20T05:40:28.829Z,95429.34
2022-09-20T05:42:55.234Z,95430.06
2022-09-20T05:45:21.663Z,95434.63
2022-09-20T05:47:48.043Z,95438.41
2022-09-20T05:50:14.503Z,95442.38
2022-09-20T05:52:40.883Z,95448.53
2022-09-20T05:55:07.210Z,95441.69
2022-09-20T05:57:33.578Z,95453.13
2022-09-20T05:59:59.926Z,95450.88
2022-09-20T06:02:26.351Z,95454.31
2022-09-20T06:04:52.772Z,95457.72
2022-09-20T06:07:19.122Z,95458.47
2022-09-20T06:09:45.473Z,95473.97
2022-09-20T06:12:11.854Z,95467.94
2022-09-20T06:14:38.224Z,95468.34
2022-09-20T06:17:04.567Z,95472.50
2022-09-20T06:19:30.926Z,95467.59
2022-09-20T06:22:03.048Z,95475.16
2022-09-20T06:24:30.049Z,95470.59
2022-09-20T06:26:56.435Z,95470.22
2022-09-20T06:29:23.801Z,95467.16
2022-09-20T06:31:50.140Z,95474.00
2022-09-20T06:34:16.501Z,95468.31
2022-09-20T06:36:42.864Z,95468.34
2022-09-20T06:39:09.246Z,95471.38
2022-09-20T06:41:35.625Z,95467.59
2022-09-20T06:44:02.990Z,95467.59
2022-09-20T06:46:29.347Z,95466.84
2022-09-20T06:48:55.701Z,95471.38
2022-09-20T06:51:22.060Z,95480.09
2022-09-20T06:53:48.424Z,95472.88
2022-09-20T06:56:14.779Z,95471.75
2022-09-20T06:58:41.154Z,95478.19
2022-09-20T07:01:07.589Z,95469.84
2022-09-20T07:03:33.953Z,95475.16
2022-09-20T07:06:00.466Z,95478.16
2022-09-20T07:08:26.873Z,95474.34
2022-09-20T07:10:53.226Z,95469.72
2022-09-20T07:13:19.599Z,95475.38
2022-09-20T07:15:46.016Z,95473.34
2022-09-20T07:18:12.402Z,95480.13
2022-09-20T07:20:38.777Z,95475.94
2022-09-20T07:23:05.148Z,95473.66
2022-09-20T07:25:31.576Z,95477.13
2022-09-20T07:27:57.932Z,95470.94
2022-09-20T07:30:24.335Z,95468.66
2022-09-20T07:32:50.696Z,95467.53
2022-09-20T07:35:17.065Z,95473.94
2022-09-20T07:37:43.752Z,95477.19
2022-09-20T07:40:10.195Z,95484.41
2022-09-20T07:42:36.679Z,95485.28
2022-09-20T07:45:03.179Z,95476.88
2022-09-20T07:47:29.657Z,95475.31
2022-09-20T07:49:56.034Z,95479.88
2022-09-20T07:52:22.396Z,95478.91
2022-09-20T07:54:48.786Z,95484.66
2022-09-20T07:57:15.187Z,95486.06
2022-09-20T07:59:41.623Z,95483.28
2022-09-20T08:02:08.074Z,95479.44
2022-09-20T08:04:34.574Z,95487.09
2022-09-20T08:07:00.958Z,95489.22
2022-09-20T08:09:27.328Z,95481.63
2022-09-20T08:11:53.757Z,95490.69
2022-09-20T08:14:20.353Z,95501.44
2022-09-20T08:16:46.950Z,95494.50
2022-09-20T08:19:13.401Z,95492.47
2022-09-20T08:21:39.907Z,95499.84
2022-09-20T08:24:06.307Z,95498.06
2022-09-20T08:26:32.706Z,95500.00
2022-09-20T08:28:59.077Z,95493.81
2022-09-20T08:31:26.473Z,95497.53
2022-09-20T08:33:52.860Z,95492.78
2022-09-20T08:36:19.238Z,95494.94
2022-09-20T08:41:31.934Z,95497.75
2022-09-20T08:43:58.356Z,95495.25
2022-09-20T08:46:24.800Z,95499.88
2022-09-20T08:48:51.206Z,95495.41
2022-09-20T08:51:22.613Z,95494.97
2022-09-20T08:53:49.549Z,95499.19
2022-09-20T08:56:15.939Z,95498.81
2022-09-20T08:58:42.371Z,95507.88
2022-09-20T09:01:08.788Z,95500.59
2022-09-20T09:03:35.178Z,95503.22
2022-09-20T09:06:01.549Z,95504.81
2022-09-20T09:08:27.910Z,95499.44
2022-09-20T09:10:54.348Z,95492.59
2022-09-20T09:13:20.748Z,95497.16
2022-09-20T09:15:47.159Z,95497.13
2022-09-20T09:18:13.524Z,95499.56
2022-09-20T09:20:39.874Z,95491.06
2022-09-20T09:23:06.282Z,95488.31
2022-09-20T09:25:32.637Z,95486.28
2022-09-20T09:27:58.996Z,95491.75
2022-09-20T09:30:25.369Z,95494.19
2022-09-20T09:32:51.758Z,95488.94
2022-09-20T09:35:18.095Z,95489.50
2022-09-20T09:37:44.456Z,95493.31
2022-09-20T09:40:11.023Z,95482.59
2022-09-20T09:42:37.400Z,95480.97
2022-09-20T09:45:06.153Z,95474.06
2022-09-20T09:47:32.504Z,95477.06
2022-09-20T09:50:01.021Z,95472.19
2022-09-20T09:52:29.253Z,95470.00
2022-09-20T09:54:55.979Z,95474.19
2022-09-20T09:57:22.323Z,95467.25
2022-09-20T09:59:48.739Z,95464.16
2022-09-20T10:02:15.176Z,95468.88
2022-09-20T10:04:41.590Z,95467.88
2022-09-20T10:07:08.016Z,95457.69
2022-09-20T10:09:34.387Z,95465.78
2022-09-20T10:12:00.744Z,95466.38
2022-09-20T10:14:27.120Z,95469.56
2022-09-20T10:16:53.549Z,95462.28
2022-09-20T10:19:22.722Z,95464.53
2022-09-20T10:21:49.326Z,95464.53
2022-09-20T10:24:15.696Z,95466.38
2022-09-20T10:26:42.172Z,95460.94
2022-09-20T10:29:08.538Z,95469.56
2022-09-20T10:31:34.978Z,95453.66
2022-09-20T10:34:01.456Z,95470.56
2022-09-20T10:36:27.808Z,95466.97
2022-09-20T10:38:54.204Z,95451.31
2022-09-20T10:41:20.574Z,95453.06
2022-09-20T10:43:46.953Z,95445.63
2022-09-20T10:46:32.349Z,95453.28
2022-09-20T10:48:59.527Z,95436.19
2022-09-20T10:51:25.889Z,95443.53
2022-09-20T10:53:52.262Z,95434.78
2022-09-20T10:56:18.619Z,95438.47
2022-09-20T10:58:45.029Z,95438.81
2022-09-20T11:01:11.523Z,95446.16
2022-09-20T11:03:37.909Z,95447.94
2022-09-20T11:06:04.284Z,95449.94
2022-09-20T11:08:30.659Z,95447.38
2022-09-20T11:10:57.042Z,95454.44
2022-09-20T11:13:23.406Z,95446.84
2022-09-20T11:15:49.763Z,95448.66
2022-09-20T11:18:16.107Z,95448.88
2022-09-20T11:20:42.787Z,95446.63
2022-09-20T11:23:09.201Z,95436.84
2022-09-20T11:25:35.569Z,95437.06
2022-09-20T11:28:01.920Z,95443.25
2022-09-20T11:30:28.286Z,95449.59
2022-09-20T11:32:54.658Z,95454.66
2022-09-20T11:35:21.014Z,95436.16
2022-09-20T11:37:47.410Z,95440.28
2022-09-20T11:40:13.784Z,95444.44
2022-09-20T11:42:40.239Z,95443.03
2022-09-20T11:45:06.596Z,95440.88
2022-09-20T11:47:53.460Z,95442.63
2022-09-20T11:50:19.395Z,95430.81
2022-09-20T11:52:45.768Z,95448.88
2022-09-20T11:55:12.103Z,95443.63
2022-09-20T11:57:38.459Z,95448.50
2022-09-20T12:00:04.847Z,95439.63
2022-09-20T12:02:31.430Z,95437.25
2022-09-20T12:04:57.860Z,95435.88
2022-09-20T12:07:24.237Z,95430.50
2022-09-20T12:09:50.613Z,95434.56
2022-09-20T12:12:17.024Z,95436.44
2022-09-20T12:14:43.407Z,95434.63
2022-09-20T12:17:09.762Z,95433.75
2022-09-20T12:19:36.129Z,95435.44
2022-09-20T12:22:02.502Z,95434.84
2022-09-20T12:24:28.851Z,95429.22
2022-09-20T12:26:55.203Z,95428.19
2022-09-20T12:29:21.563Z,95436.03
2022-09-20T12:31:47.949Z,95430.91
2022-09-20T12:34:14.334Z,95436.50
2022-09-20T12:36:40.689Z,95431.53
2022-09-20T12:39:07.042Z,95433.38
2022-09-20T12:41:33.401Z,95434.88
2022-09-20T12:43:59.750Z,95430.66
2022-09-20T12:46:26.169Z,95426.19
2022-09-20T12:48:52.578Z,95423.84
2022-09-20T12:51:18.952Z,95422.09
2022-09-20T12:53:45.294Z,95423.22
2022-09-20T12:56:11.647Z,95411.59
2022-09-20T12:58:38.002Z,95402.00
2022-09-20T13:01:04.415Z,95410.41
2022-09-20T13:03:30.788Z,95409.66
2022-09-20T13:05:57.142Z,95406.03
2022-09-20T13:08:23.501Z,95415.75
2022-09-20T13:10:49.854Z,95409.00
2022-09-20T13:13:16.227Z,95406.88
2022-09-20T13:15:42.600Z,95404.94
2022-09-20T13:18:09.031Z,95404.44
2022-09-20T13:20:35.440Z,95415.13
2022-09-20T13:23:01.857Z,95405.81
2022-09-20T13:25:28.202Z,95408.78
2022-09-20T13:27:54.542Z,95409.22
2022-09-20T13:30:20.910Z,95396.44
2022-09-20T13:32:47.276Z,95407.97
2022-09-20T13:35:13.648Z,95399.78
2022-09-20T13:37:40.024Z,95408.78
2022-09-20T13:40:06.451Z,95399.75
2022-09-20T13:42:33.622Z,95403.69
2022-09-20T13:45:00.046Z,95396.38
2022-09-20T13:47:26.421Z,95396.91
2022-09-20T13:49:52.760Z,95406.97
2022-09-20T13:52:19.132Z,95403.66
2022-09-20T13:54:45.506Z,95394.50
2022-09-20T13:57:11.875Z,95395.31
2022-09-20T13:59:38.244Z,95392.47
2022-09-20T14:02:04.690Z,95398.88
2022-09-20T14:04:31.070Z,95397.59
2022-09-20T14:06:57.439Z,95403.19
2022-09-20T14:09:23.801Z,95396.75
2022-09-20T14:11:50.156Z,95390.94
2022-09-20T14:14:21.287Z,95390.13
2022-09-20T14:16:48.501Z,95389.72
2022-09-20T14:19:14.844Z,95392.50
2022-09-20T14:21:41.191Z,95390.09
2022-09-20T14:24:07.538Z,95385.09
2022-09-20T14:26:33.895Z,95384.63
2022-09-20T14:29:00.317Z,95389.34
2022-09-20T14:31:26.730Z,95384.88
2022-09-20T14:33:55.239Z,95383.25
2022-09-20T14:36:21.831Z,95380.41
2022-09-20T14:38:48.214Z,95384.53
2022-09-20T14:41:14.576Z,95387.75
2022-09-20T14:43:40.954Z,95380.56
2022-09-20T14:46:07.343Z,95392.28
2022-09-20T14:48:35.112Z,95387.81
2022-09-20T14:51:01.472Z,95379.38
2022-09-20T14:53:27.836Z,95384.25
2022-09-20T14:55:54.273Z,95377.72
2022-09-20T14:58:20.626Z,95382.22
2022-09-20T15:00:47.064Z,95379.25
2022-09-20T15:03:13.440Z,95381.13
2022-09-20T15:05:39.812Z,95381.88
2022-09-20T15:08:06.167Z,95382.41
2022-09-20T15:10:32.510Z,95389.13
2022-09-20T15:12:58.874Z,95377.53
2022-09-20T15:15:25.246Z,95384.78
2022-09-20T15:17:51.661Z,95389.50
2022-09-20T15:20:23.220Z,95382.44
2022-09-20T15:22:50.509Z,95377.84
2022-09-20T15:25:16.880Z,95375.03
2022-09-20T15:27:43.605Z,95373.69
2022-09-20T15:30:09.960Z,95374.84
2022-09-20T15:32:36.326Z,95372.41
2022-09-20T15:35:02.732Z,95380.84
2022-09-20T15:37:29.085Z,95379.94
2022-09-20T15:39:55.439Z,95372.59
2022-09-20T15:42:21.829Z,95369.47
2022-09-20T15:44:48.178Z,95376.63
2022-09-20T15:47:16.139Z,95373.88
2022-09-20T15:49:42.567Z,95375.94
2022-09-20T15:52:08.937Z,95381.97
2022-09-20T15:54:35.279Z,95381.28
2022-09-20T15:57:01.644Z,95375.59
2022-09-20T15:59:27.971Z,95387.47
2022-09-20T16:01:54.386Z,95381.28
2022-09-20T16:04:20.787Z,95384.75
2022-09-20T16:06:47.139Z,95376.59
2022-09-20T16:09:13.488Z,95387.72
2022-09-20T16:11:39.834Z,95391.22
2022-09-20T16:14:08.262Z,95385.50
2022-09-20T16:16:39.662Z,95383.75
2022-09-20T16:19:06.747Z,95397.84
2022-09-20T16:21:33.245Z,95388.72
2022-09-20T16:23:59.756Z,95390.91
2022-09-20T16:26:26.161Z,95390.41
2022-09-20T16:28:52.584Z,95393.09
2022-09-20T16:31:19.021Z,95391.38
2022-09-20T16:33:45.399Z,95400.06
2022-09-20T16:36:11.745Z,95401.50
2022-09-20T16:38:38.243Z,95401.16
2022-09-20T16:41:04.605Z,95400.25
2022-09-20T16:43:30.987Z,95402.53
2022-09-20T16:45:57.403Z,95405.50
2022-09-20T16:48:23.793Z,95403.69
2022-09-20T16:50:50.188Z,95402.88
2022-09-20T16:53:16.533Z,95413.63
2022-09-20T16:55:42.898Z,95405.69
2022-09-20T16:58:09.251Z,95411.50
2022-09-20T17:00:35.662Z,95407.31
2022-09-20T17:03:02.048Z,95411.59
2022-09-20T17:05:28.418Z,95403.72
2022-09-20T17:07:54.785Z,95415.34
2022-09-20T17:10:21.146Z,95414.38
2022-09-20T17:12:47.497Z,95419.31
2022-09-20T17:15:13.871Z,95418.31
2022-09-20T17:17:40.281Z,95423.47
2022-09-20T17:20:06.637Z,95430.69
2022-09-20T17:22:33.065Z,95428.81
2022-09-20T17:24:59.463Z,95434.16
2022-09-20T17:27:25.883Z,95434.91
2022-09-20T17:29:52.355Z,95440.06
2022-09-20T17:32:18.752Z,95434.66
2022-09-20T17:34:45.256Z,95445.13
2022-09-20T17:37:11.671Z,95448.13
2022-09-20T17:39:38.353Z,95444.09
2022-09-20T17:42:04.701Z,95450.75
2022-09-20T17:44:31.176Z,95453.78
2022-09-20T17:46:58.591Z,95449.34
2022-09-20T17:49:24.981Z,95454.47
2022-09-20T17:51:51.349Z,95464.59
2022-09-20T17:54:17.700Z,95458.19
2022-09-20T17:56:44.076Z,95457.84
2022-09-20T17:59:10.513Z,95473.41
2022-09-20T18:01:36.878Z,95473.00
2022-09-20T18:04:03.226Z,95480.00
2022-09-20T18:06:29.591Z,95476.16
2022-09-20T18:08:55.946Z,95468.63
2022-09-20T18:11:22.292Z,95477.09
2022-09-20T18:13:50.705Z,95479.22
2022-09-20T18:16:17.166Z,95472.69
2022-09-20T18:18:43.645Z,95476.78
2022-09-20T18:21:10.001Z,95483.63
2022-09-20T18:23:36.624Z,95481.59
2022-09-20T18:26:03.022Z,95474.75
2022-09-20T18:28:29.415Z,95481.66
2022-09-20T18:30:55.833Z,95486.78
2022-09-20T18:33:22.181Z,95483.69
2022-09-20T18:35:48.600Z,95480.25
2022-09-20T18:38:14.956Z,95483.34
2022-09-20T18:40:41.387Z,95489.31
2022-09-20T18:43:07.761Z,95487.72
2022-09-20T18:45:34.129Z,95484.22
2022-09-20T18:48:00.486Z,95485.44
2022-09-20T18:50:26.872Z,95481.19
2022-09-20T18:52:53.324Z,95479.50
2022-09-20T18:55:19.738Z,95482.06
2022-09-20T18:57:46.142Z,95470.63
2022-09-20T19:00:12.520Z,95481.94
2022-09-20T19:02:38.932Z,95469.66
2022-09-20T19:05:05.596Z,95477.75
2022-09-20T19:07:31.963Z,95481.25
2022-09-20T19:09:59.365Z,95484.31
2022-09-20T19:12:25.746Z,95474.41
2022-09-20T19:14:52.118Z,95479.09
2022-09-20T19:17:18.477Z,95477.53
2022-09-20T19:19:44.859Z,95477.94
2022-09-20T19:22:11.203Z,95482.31
2022-09-20T19:24:37.601Z,95477.91
2022-09-20T19:27:05.021Z,95493.34
2022-09-20T19:29:31.538Z,95482.53
2022-09-20T19:31:57.883Z,95492.03
2022-09-20T19:34:24.465Z,95488.22
2022-09-20T19:36:50.827Z,95488.34
2022-09-20T19:39:17.510Z,95487.91
2022-09-20T19:41:43.860Z,95498.31
2022-09-20T19:44:10.209Z,95494.47
2022-09-20T19:46:36.689Z,95496.06
2022-09-20T19:49:03.143Z,95488.19
2022-09-20T19:51:29.567Z,95490.97
2022-09-20T19:53:56.077Z,95494.06
2022-09-20T19:56:22.445Z,95486.28
2022-09-20T19:58:49.806Z,95484.16
2022-09-20T20:01:16.221Z,95488.56
2022-09-20T20:03:44.879Z,95497.63
2022-09-20T20:06:13.013Z,95497.69
2022-09-20T20:08:39.630Z,95495.47
2022-09-20T20:11:05.983Z,95495.16
2022-09-20T20:13:32.351Z,95492.50
2022-09-20T20:16:01.199Z,95490.00
2022-09-20T20:18:27.639Z,95502.59
2022-09-20T20:20:54.033Z,95504.56
2022-09-20T20:23:20.402Z,95506.94
2022-09-20T20:25:46.798Z,95500.91
2022-09-20T20:28:13.148Z,95505.84
2022-09-20T20:30:39.544Z,95513.41
2022-09-20T20:33:05.891Z,95499.22
2022-09-20T20:35:32.239Z,95503.09
2022-09-20T20:37:58.594Z,95512.59
2022-09-20T20:40:25.117Z,95514.41
2022-09-20T20:42:51.583Z,95508.72
2022-09-20T20:45:17.968Z,95516.38
2022-09-20T20:47:44.345Z,95514.97
2022-09-20T20:50:10.694Z,95512.38
2022-09-20T20:52:37.082Z,95500.19
2022-09-20T20:55:03.453Z,95501.97
2022-09-20T20:57:29.827Z,95492.38
2022-09-20T20:59:56.179Z,95502.81
2022-09-20T21:02:22.566Z,95501.94
2022-09-20T21:04:48.929Z,95499.63
2022-09-20T21:07:15.318Z,95508.22
2022-09-20T21:09:41.680Z,95505.97
2022-09-20T21:12:08.313Z,95501.53
2022-09-20T21:14:34.673Z,95502.34
2022-09-20T21:17:01.053Z,95503.78
2022-09-20T21:19:27.486Z,95503.78
2022-09-20T21:21:54.938Z,95509.13
2022-09-20T21:24:21.274Z,95508.78
2022-09-20T21:26:47.656Z,95501.59
2022-09-20T21:29:14.004Z,95503.09
2022-09-20T21:31:40.442Z,95499.94
2022-09-20T21:34:06.883Z,95494.22
2022-09-20T21:36:33.519Z,95496.53
2022-09-20T21:38:59.937Z,95486.97
2022-09-20T21:41:26.285Z,95487.97
2022-09-20T21:43:52.651Z,95495.81
2022-09-20T21:46:19.129Z,95484.47
2022-09-20T21:48:45.578Z,95481.84
2022-09-20T21:51:11.925Z,95489.44
2022-09-20T21:53:38.283Z,95484.16
2022-09-20T21:56:04.659Z,95481.13
2022-09-20T21:58:31.006Z,95486.06
2022-09-20T22:00:57.374Z,95479.63
2022-09-20T22:03:23.761Z,95474.38
2022-09-20T22:05:50.121Z,95476.25
2022-09-20T22:08:16.504Z,95476.19
2022-09-20T22:10:42.884Z,95476.69
2022-09-20T22:13:09.234Z,95475.47
2022-09-20T22:15:35.634Z,95467.09
2022-09-20T22:18:02.011Z,95466.34
2022-09-20T22:20:28.392Z,95466.78
2022-09-20T22:22:54.777Z,95466.50
2022-09-20T22:25:21.154Z,95467.97
2022-09-20T22:27:47.600Z,95455.47
2022-09-20T22:30:14.004Z,95463.94
2022-09-20T22:32:40.390Z,95466.94
2022-09-20T22:35:06.761Z,95466.94
2022-09-20T22:37:33.169Z,95466.22
2022-09-20T22:39:59.563Z,95471.50
2022-09-20T22:42:25.992Z,95463.13
2022-09-20T22:44:52.329Z,95464.63
2022-09-20T22:47:18.711Z,95470.41
2022-09-20T22:49:45.109Z,95469.16
2022-09-20T22:52:11.552Z,95471.09
2022-09-20T22:54:37.906Z,95465.84
2022-09-20T22:57:04.274Z,95460.19
2022-09-20T22:59:30.641Z,95460.94
2022-09-20T23:01:57.012Z,95463.66
2022-09-20T23:04:23.398Z,95456.84
2022-09-20T23:06:49.754Z,95457.63
2022-09-20T23:09:16.145Z,95463.66
2022-09-20T23:11:42.505Z,95467.84
2022-09-20T23:14:08.884Z,95466.38
2022-09-20T23:16:35.290Z,95452.00
2022-09-20T23:19:01.688Z,95469.03
2022-09-20T23:21:28.083Z,95470.94
2022-09-20T23:23:54.456Z,95468.69
2022-09-20T23:26:20.861Z,95461.09
2022-09-20T23:28:47.307Z,95464.13
2022-09-20T23:31:13.736Z,95470.22
2022-09-20T23:33:43.599Z,95464.53
2022-09-20T23:36:12.902Z,95461.63
2022-09-20T23:38:39.280Z,95466.50
2022-09-20T23:41:05.622Z,95468.06
2022-09-20T23:43:32.013Z,95468.78
2022-09-20T23:45:58.376Z,95460.47
2022-09-20T23:48:24.766Z,95469.56
2022-09-20T23:50:51.126Z,95471.03
2022-09-20T23:53:17.503Z,95471.09
2022-09-20T23:55:43.851Z,95468.81
2022-09-20T23:58:10.231Z,95474.84
